sensor_id;sensor_type;location;lat;lon;timestamp;temperature;humidity
31309;DHT22;17936;52.446;10.840;2023-02-16T00:00:18;3.90;99.90
31309;DHT22;17936;52.446;10.840;2023-02-16T00:02:44;4.00;99.90
31309;DHT22;17936;52.446;10.840;2023-02-16T00:05:30;3.80;99.90
31309;DHT22;17936;52.446;10.840;2023-02-16T00:07:57;3.70;99.90
31309;DHT22;17936;52.446;10.840;2023-02-16T00:10:24;3.80;99.90
31309;DHT22;17936;52.446;10.840;2023-02-16T00:12:51;3.70;99.90
31309;DHT22;17936;52.446;10.840;2023-02-16T00:15:35;4.30;99.90
31309;DHT22;17936;52.446;10.840;2023-02-16T00:18:01;3.60;99.90
31309;DHT22;17936;52.446;10.840;2023-02-16T00:20:29;3.70;99.90
31309;DHT22;17936;52.446;10.840;2023-02-16T00:22:55;3.80;99.90
31309;DHT22;17936;52.446;10.840;2023-02-16T00:25:20;3.60;99.90
31309;DHT22;17936;52.446;10.840;2023-02-16T00:27:46;3.90;99.90
31309;DHT22;17936;52.446;10.840;2023-02-16T00:30:16;3.90;99.90
31309;DHT22;17936;52.446;10.840;2023-02-16T00:32:42;4.10;99.90
31309;DHT22;17936;52.446;10.840;2023-02-16T00:35:16;4.10;99.90
31309;DHT22;17936;52.446;10.840;2023-02-16T00:37:42;4.10;99.90
31309;DHT22;17936;52.446;10.840;2023-02-16T00:40:08;4.10;99.90
31309;DHT22;17936;52.446;10.840;2023-02-16T00:42:33;4.10;99.90
31309;DHT22;17936;52.446;10.840;2023-02-16T00:44:59;4.00;99.90
31309;DHT22;17936;52.446;10.840;2023-02-16T00:47:36;4.00;99.90
31309;DHT22;17936;52.446;10.840;2023-02-16T00:50:09;4.00;99.90
31309;DHT22;17936;52.446;10.840;2023-02-16T00:52:39;4.10;99.90
31309;DHT22;17936;52.446;10.840;2023-02-16T00:55:11;4.70;99.90
31309;DHT22;17936;52.446;10.840;2023-02-16T01:02:59;4.20;99.90
31309;DHT22;17936;52.446;10.840;2023-02-16T01:05:25;4.10;99.90
31309;DHT22;17936;52.446;10.840;2023-02-16T01:07:51;4.10;99.90
31309;DHT22;17936;52.446;10.840;2023-02-16T01:10:36;4.20;99.90
31309;DHT22;17936;52.446;10.840;2023-02-16T01:13:22;4.10;99.90
31309;DHT22;17936;52.446;10.840;2023-02-16T01:15:48;4.20;99.90
31309;DHT22;17936;52.446;10.840;2023-02-16T01:18:16;4.10;99.90
31309;DHT22;17936;52.446;10.840;2023-02-16T01:20:42;4.10;99.90
31309;DHT22;17936;52.446;10.840;2023-02-16T01:23:08;4.10;99.90
31309;DHT22;17936;52.446;10.840;2023-02-16T01:25:35;3.90;99.90
31309;DHT22;17936;52.446;10.840;2023-02-16T01:28:00;4.10;99.90
31309;DHT22;17936;52.446;10.840;2023-02-16T01:30:26;4.10;99.90
31309;DHT22;17936;52.446;10.840;2023-02-16T01:32:52;4.40;99.90
31309;DHT22;17936;52.446;10.840;2023-02-16T01:35:29;4.10;99.90
31309;DHT22;17936;52.446;10.840;2023-02-16T01:37:55;4.10;99.90
31309;DHT22;17936;52.446;10.840;2023-02-16T01:40:35;4.10;99.90
31309;DHT22;17936;52.446;10.840;2023-02-16T01:43:25;4.20;99.90
31309;DHT22;17936;52.446;10.840;2023-02-16T01:45:58;4.20;99.90
31309;DHT22;17936;52.446;10.840;2023-02-16T01:48:28;4.10;99.90
31309;DHT22;17936;52.446;10.840;2023-02-16T01:51:11;4.10;99.90
31309;DHT22;17936;52.446;10.840;2023-02-16T01:56:18;4.00;99.90
31309;DHT22;17936;52.446;10.840;2023-02-16T01:58:49;4.10;99.90
31309;DHT22;17936;52.446;10.840;2023-02-16T02:01:43;4.10;99.90
31309;DHT22;17936;52.446;10.840;2023-02-16T02:10:23;4.10;99.90
31309;DHT22;17936;52.446;10.840;2023-02-16T02:13:06;3.90;99.90
31309;DHT22;17936;52.446;10.840;2023-02-16T02:15:33;4.20;99.90
31309;DHT22;17936;52.446;10.840;2023-02-16T02:17:59;4.20;99.90
31309;DHT22;17936;52.446;10.840;2023-02-16T02:26:54;4.20;99.90
31309;DHT22;17936;52.446;10.840;2023-02-16T02:35:15;4.20;99.90
31309;DHT22;17936;52.446;10.840;2023-02-16T02:37:55;4.20;99.90
31309;DHT22;17936;52.446;10.840;2023-02-16T02:43:13;4.00;99.90
31309;DHT22;17936;52.446;10.840;2023-02-16T02:45:46;4.00;99.90
31309;DHT22;17936;52.446;10.840;2023-02-16T02:48:13;3.90;99.90
31309;DHT22;17936;52.446;10.840;2023-02-16T02:51:03;4.00;99.90
31309;DHT22;17936;52.446;10.840;2023-02-16T02:53:51;4.10;99.90
31309;DHT22;17936;52.446;10.840;2023-02-16T02:56:40;3.90;99.90
31309;DHT22;17936;52.446;10.840;2023-02-16T02:59:29;3.90;99.90
31309;DHT22;17936;52.446;10.840;2023-02-16T03:02:15;4.00;99.90
31309;DHT22;17936;52.446;10.840;2023-02-16T03:04:43;4.20;99.90
31309;DHT22;17936;52.446;10.840;2023-02-16T03:07:10;3.90;99.90
31309;DHT22;17936;52.446;10.840;2023-02-16T03:09:36;3.90;99.90
31309;DHT22;17936;52.446;10.840;2023-02-16T03:12:03;3.70;99.90
31309;DHT22;17936;52.446;10.840;2023-02-16T03:14:54;3.90;99.90
31309;DHT22;17936;52.446;10.840;2023-02-16T03:17:25;3.80;99.90
31309;DHT22;17936;52.446;10.840;2023-02-16T03:20:14;3.80;99.90
31309;DHT22;17936;52.446;10.840;2023-02-16T03:23:00;3.90;99.90
31309;DHT22;17936;52.446;10.840;2023-02-16T03:25:46;3.80;99.90
31309;DHT22;17936;52.446;10.840;2023-02-16T03:28:32;3.80;99.90
31309;DHT22;17936;52.446;10.840;2023-02-16T03:31:21;3.80;99.90
31309;DHT22;17936;52.446;10.840;2023-02-16T03:33:49;4.00;99.90
31309;DHT22;17936;52.446;10.840;2023-02-16T03:36:23;3.90;99.90
31309;DHT22;17936;52.446;10.840;2023-02-16T03:38:50;4.00;99.90
31309;DHT22;17936;52.446;10.840;2023-02-16T03:41:16;4.20;99.90
31309;DHT22;17936;52.446;10.840;2023-02-16T03:43:42;4.30;99.90
31309;DHT22;17936;52.446;10.840;2023-02-16T03:46:07;4.30;99.90
31309;DHT22;17936;52.446;10.840;2023-02-16T03:48:33;4.00;99.90
31309;DHT22;17936;52.446;10.840;2023-02-16T03:50:58;3.90;99.90
31309;DHT22;17936;52.446;10.840;2023-02-16T03:53:24;3.90;99.90
31309;DHT22;17936;52.446;10.840;2023-02-16T03:55:49;4.00;99.90
31309;DHT22;17936;52.446;10.840;2023-02-16T03:58:19;4.00;99.90
31309;DHT22;17936;52.446;10.840;2023-02-16T04:00:45;3.90;99.90
31309;DHT22;17936;52.446;10.840;2023-02-16T04:03:11;4.00;99.90
31309;DHT22;17936;52.446;10.840;2023-02-16T04:05:37;4.20;99.90
31309;DHT22;17936;52.446;10.840;2023-02-16T04:08:03;4.00;99.90
31309;DHT22;17936;52.446;10.840;2023-02-16T04:10:29;4.00;99.90
31309;DHT22;17936;52.446;10.840;2023-02-16T04:12:54;3.90;99.90
31309;DHT22;17936;52.446;10.840;2023-02-16T04:15:22;3.90;99.90
31309;DHT22;17936;52.446;10.840;2023-02-16T04:17:48;4.00;99.90
31309;DHT22;17936;52.446;10.840;2023-02-16T04:20:19;3.90;99.90
31309;DHT22;17936;52.446;10.840;2023-02-16T04:22:46;3.90;99.90
31309;DHT22;17936;52.446;10.840;2023-02-16T04:25:12;4.00;99.90
31309;DHT22;17936;52.446;10.840;2023-02-16T04:27:38;4.00;99.90
31309;DHT22;17936;52.446;10.840;2023-02-16T04:30:06;4.00;99.90
31309;DHT22;17936;52.446;10.840;2023-02-16T04:32:32;4.10;99.90
31309;DHT22;17936;52.446;10.840;2023-02-16T04:34:57;3.90;99.90
31309;DHT22;17936;52.446;10.840;2023-02-16T04:37:23;4.00;99.90
31309;DHT22;17936;52.446;10.840;2023-02-16T04:39:49;3.90;99.90
31309;DHT22;17936;52.446;10.840;2023-02-16T04:42:14;3.70;99.90
31309;DHT22;17936;52.446;10.840;2023-02-16T04:44:40;3.80;99.90
31309;DHT22;17936;52.446;10.840;2023-02-16T04:47:05;3.60;99.90
31309;DHT22;17936;52.446;10.840;2023-02-16T04:49:31;3.40;99.90
31309;DHT22;17936;52.446;10.840;2023-02-16T04:51:57;3.50;99.90
31309;DHT22;17936;52.446;10.840;2023-02-16T04:54:22;3.20;99.90
31309;DHT22;17936;52.446;10.840;2023-02-16T04:56:48;3.40;99.90
31309;DHT22;17936;52.446;10.840;2023-02-16T04:59:14;3.40;99.90
31309;DHT22;17936;52.446;10.840;2023-02-16T05:01:41;3.40;99.90
31309;DHT22;17936;52.446;10.840;2023-02-16T05:04:07;3.60;99.90
31309;DHT22;17936;52.446;10.840;2023-02-16T05:06:34;3.80;99.90
31309;DHT22;17936;52.446;10.840;2023-02-16T05:08:59;3.50;99.90
31309;DHT22;17936;52.446;10.840;2023-02-16T05:11:25;3.40;99.90
31309;DHT22;17936;52.446;10.840;2023-02-16T05:14:18;3.50;99.90
31309;DHT22;17936;52.446;10.840;2023-02-16T05:17:02;3.30;99.90
31309;DHT22;17936;52.446;10.840;2023-02-16T05:19:28;3.20;99.90
31309;DHT22;17936;52.446;10.840;2023-02-16T05:21:53;3.40;99.90
31309;DHT22;17936;52.446;10.840;2023-02-16T05:24:19;3.30;99.90
31309;DHT22;17936;52.446;10.840;2023-02-16T05:26:44;3.30;99.90
31309;DHT22;17936;52.446;10.840;2023-02-16T05:29:10;3.20;99.90
31309;DHT22;17936;52.446;10.840;2023-02-16T05:31:35;3.20;99.90
31309;DHT22;17936;52.446;10.840;2023-02-16T05:34:01;3.20;99.90
31309;DHT22;17936;52.446;10.840;2023-02-16T05:36:27;3.20;99.90
31309;DHT22;17936;52.446;10.840;2023-02-16T05:38:52;3.20;99.90
31309;DHT22;17936;52.446;10.840;2023-02-16T05:41:18;3.20;99.90
31309;DHT22;17936;52.446;10.840;2023-02-16T05:43:58;3.20;99.90
31309;DHT22;17936;52.446;10.840;2023-02-16T05:46:25;3.20;99.90
31309;DHT22;17936;52.446;10.840;2023-02-16T05:48:51;3.10;99.90
31309;DHT22;17936;52.446;10.840;2023-02-16T05:51:17;3.20;99.90
31309;DHT22;17936;52.446;10.840;2023-02-16T05:53:43;3.20;99.90
31309;DHT22;17936;52.446;10.840;2023-02-16T05:56:08;3.20;99.90
31309;DHT22;17936;52.446;10.840;2023-02-16T05:58:34;3.20;99.90
31309;DHT22;17936;52.446;10.840;2023-02-16T06:01:00;3.20;99.90
31309;DHT22;17936;52.446;10.840;2023-02-16T06:03:25;3.20;99.90
31309;DHT22;17936;52.446;10.840;2023-02-16T06:05:59;3.30;99.90
31309;DHT22;17936;52.446;10.840;2023-02-16T06:08:25;3.20;99.90
31309;DHT22;17936;52.446;10.840;2023-02-16T06:10:52;3.10;99.90
31309;DHT22;17936;52.446;10.840;2023-02-16T06:13:18;3.20;99.90
31309;DHT22;17936;52.446;10.840;2023-02-16T06:15:45;3.30;99.90
31309;DHT22;17936;52.446;10.840;2023-02-16T06:18:11;3.30;99.90
31309;DHT22;17936;52.446;10.840;2023-02-16T06:20:37;3.50;99.90
31309;DHT22;17936;52.446;10.840;2023-02-16T06:23:03;3.70;99.90
31309;DHT22;17936;52.446;10.840;2023-02-16T06:25:29;3.50;99.90
31309;DHT22;17936;52.446;10.840;2023-02-16T06:27:55;3.40;99.90
31309;DHT22;17936;52.446;10.840;2023-02-16T06:30:22;3.50;99.90
31309;DHT22;17936;52.446;10.840;2023-02-16T06:32:47;3.60;99.90
31309;DHT22;17936;52.446;10.840;2023-02-16T06:35:13;3.60;99.90
31309;DHT22;17936;52.446;10.840;2023-02-16T06:37:39;3.80;99.90
31309;DHT22;17936;52.446;10.840;2023-02-16T06:40:05;3.60;99.90
31309;DHT22;17936;52.446;10.840;2023-02-16T06:42:31;3.80;99.90
31309;DHT22;17936;52.446;10.840;2023-02-16T06:44:56;3.80;99.90
31309;DHT22;17936;52.446;10.840;2023-02-16T06:47:22;3.90;99.90
31309;DHT22;17936;52.446;10.840;2023-02-16T06:49:47;3.80;99.90
31309;DHT22;17936;52.446;10.840;2023-02-16T06:52:13;4.00;99.90
31309;DHT22;17936;52.446;10.840;2023-02-16T06:54:38;3.80;99.90
31309;DHT22;17936;52.446;10.840;2023-02-16T06:57:04;4.00;99.90
31309;DHT22;17936;52.446;10.840;2023-02-16T06:59:29;4.10;99.90
31309;DHT22;17936;52.446;10.840;2023-02-16T07:01:55;4.00;99.90
31309;DHT22;17936;52.446;10.840;2023-02-16T07:04:20;4.00;99.90
31309;DHT22;17936;52.446;10.840;2023-02-16T07:06:46;4.10;99.90
31309;DHT22;17936;52.446;10.840;2023-02-16T07:09:12;4.40;99.90
31309;DHT22;17936;52.446;10.840;2023-02-16T07:11:37;4.40;99.90
31309;DHT22;17936;52.446;10.840;2023-02-16T07:14:03;4.60;99.90
31309;DHT22;17936;52.446;10.840;2023-02-16T07:16:29;4.70;99.90
31309;DHT22;17936;52.446;10.840;2023-02-16T07:18:54;4.70;99.90
31309;DHT22;17936;52.446;10.840;2023-02-16T07:21:20;4.70;99.90
31309;DHT22;17936;52.446;10.840;2023-02-16T07:23:45;4.70;99.90
31309;DHT22;17936;52.446;10.840;2023-02-16T07:26:11;4.90;99.90
31309;DHT22;17936;52.446;10.840;2023-02-16T07:28:36;4.90;99.90
31309;DHT22;17936;52.446;10.840;2023-02-16T07:31:11;5.00;99.90
31309;DHT22;17936;52.446;10.840;2023-02-16T07:33:37;5.20;99.90
31309;DHT22;17936;52.446;10.840;2023-02-16T07:36:03;5.30;99.90
31309;DHT22;17936;52.446;10.840;2023-02-16T07:38:28;5.40;99.90
31309;DHT22;17936;52.446;10.840;2023-02-16T07:40:55;5.50;99.90
31309;DHT22;17936;52.446;10.840;2023-02-16T07:43:22;5.40;99.90
31309;DHT22;17936;52.446;10.840;2023-02-16T07:45:48;5.50;99.90
31309;DHT22;17936;52.446;10.840;2023-02-16T07:48:13;5.50;99.90
31309;DHT22;17936;52.446;10.840;2023-02-16T07:50:39;5.40;99.90
31309;DHT22;17936;52.446;10.840;2023-02-16T07:53:04;5.40;99.90
31309;DHT22;17936;52.446;10.840;2023-02-16T07:55:30;5.50;99.90
31309;DHT22;17936;52.446;10.840;2023-02-16T07:57:55;5.80;99.90
31309;DHT22;17936;52.446;10.840;2023-02-16T08:00:21;5.80;99.90
31309;DHT22;17936;52.446;10.840;2023-02-16T08:02:47;6.00;99.90
31309;DHT22;17936;52.446;10.840;2023-02-16T08:05:13;5.90;99.90
31309;DHT22;17936;52.446;10.840;2023-02-16T08:07:39;6.00;99.90
31309;DHT22;17936;52.446;10.840;2023-02-16T08:10:06;6.10;99.90
31309;DHT22;17936;52.446;10.840;2023-02-16T08:12:32;5.90;99.90
31309;DHT22;17936;52.446;10.840;2023-02-16T08:14:58;6.00;99.90
31309;DHT22;17936;52.446;10.840;2023-02-16T08:17:23;6.30;99.90
31309;DHT22;17936;52.446;10.840;2023-02-16T08:19:49;6.20;99.90
31309;DHT22;17936;52.446;10.840;2023-02-16T08:22:16;6.60;99.90
31309;DHT22;17936;52.446;10.840;2023-02-16T08:24:42;6.30;99.90
31309;DHT22;17936;52.446;10.840;2023-02-16T08:27:08;6.60;99.90
31309;DHT22;17936;52.446;10.840;2023-02-16T08:29:33;6.60;99.90
31309;DHT22;17936;52.446;10.840;2023-02-16T08:32:00;6.90;99.90
31309;DHT22;17936;52.446;10.840;2023-02-16T08:34:32;6.80;99.90
31309;DHT22;17936;52.446;10.840;2023-02-16T08:36:59;6.70;99.90
31309;DHT22;17936;52.446;10.840;2023-02-16T08:39:27;6.70;99.90
31309;DHT22;17936;52.446;10.840;2023-02-16T08:41:53;6.60;99.90
31309;DHT22;17936;52.446;10.840;2023-02-16T08:44:21;6.60;99.90
31309;DHT22;17936;52.446;10.840;2023-02-16T08:46:48;6.80;99.90
31309;DHT22;17936;52.446;10.840;2023-02-16T08:49:16;6.80;99.90
31309;DHT22;17936;52.446;10.840;2023-02-16T08:51:46;6.80;99.90
31309;DHT22;17936;52.446;10.840;2023-02-16T08:54:32;6.90;99.90
31309;DHT22;17936;52.446;10.840;2023-02-16T08:56:59;7.20;99.90
31309;DHT22;17936;52.446;10.840;2023-02-16T08:59:27;7.00;99.90
31309;DHT22;17936;52.446;10.840;2023-02-16T09:01:52;7.00;99.90
31309;DHT22;17936;52.446;10.840;2023-02-16T09:04:18;7.10;99.90
31309;DHT22;17936;52.446;10.840;2023-02-16T09:06:45;7.10;99.90
31309;DHT22;17936;52.446;10.840;2023-02-16T09:09:13;6.80;99.90
31309;DHT22;17936;52.446;10.840;2023-02-16T09:11:39;7.20;99.90
31309;DHT22;17936;52.446;10.840;2023-02-16T09:14:04;7.10;99.90
31309;DHT22;17936;52.446;10.840;2023-02-16T09:16:31;7.00;99.90
31309;DHT22;17936;52.446;10.840;2023-02-16T09:19:00;7.10;99.90
31309;DHT22;17936;52.446;10.840;2023-02-16T09:21:27;7.20;99.90
31309;DHT22;17936;52.446;10.840;2023-02-16T09:23:56;7.20;99.90
31309;DHT22;17936;52.446;10.840;2023-02-16T09:26:24;7.50;99.90
31309;DHT22;17936;52.446;10.840;2023-02-16T09:28:51;7.40;99.90
31309;DHT22;17936;52.446;10.840;2023-02-16T09:31:26;7.20;99.90
31309;DHT22;17936;52.446;10.840;2023-02-16T09:33:55;7.50;99.90
31309;DHT22;17936;52.446;10.840;2023-02-16T09:36:20;7.40;99.90
31309;DHT22;17936;52.446;10.840;2023-02-16T09:38:46;7.40;99.90
31309;DHT22;17936;52.446;10.840;2023-02-16T09:44:39;7.60;99.90
31309;DHT22;17936;52.446;10.840;2023-02-16T09:47:25;7.80;99.90
31309;DHT22;17936;52.446;10.840;2023-02-16T09:49:54;7.90;99.90
31309;DHT22;17936;52.446;10.840;2023-02-16T09:52:34;8.10;99.90
31309;DHT22;17936;52.446;10.840;2023-02-16T09:55:04;8.00;99.90
31309;DHT22;17936;52.446;10.840;2023-02-16T10:00:46;8.00;99.90
31309;DHT22;17936;52.446;10.840;2023-02-16T10:03:35;8.20;99.90
31309;DHT22;17936;52.446;10.840;2023-02-16T10:06:34;8.30;99.90
31309;DHT22;17936;52.446;10.840;2023-02-16T10:09:05;8.50;99.90
31309;DHT22;17936;52.446;10.840;2023-02-16T10:11:35;8.80;99.90
31309;DHT22;17936;52.446;10.840;2023-02-16T10:14:11;9.10;99.90
31309;DHT22;17936;52.446;10.840;2023-02-16T10:16:41;9.40;99.90
31309;DHT22;17936;52.446;10.840;2023-02-16T10:19:23;9.20;99.90
31309;DHT22;17936;52.446;10.840;2023-02-16T10:21:54;9.00;99.90
31309;DHT22;17936;52.446;10.840;2023-02-16T10:24:20;9.00;99.90
31309;DHT22;17936;52.446;10.840;2023-02-16T10:26:51;8.60;99.90
31309;DHT22;17936;52.446;10.840;2023-02-16T10:29:19;8.50;99.90
31309;DHT22;17936;52.446;10.840;2023-02-16T10:31:59;8.80;99.90
31309;DHT22;17936;52.446;10.840;2023-02-16T10:37:42;9.20;99.90
31309;DHT22;17936;52.446;10.840;2023-02-16T10:45:34;9.10;99.90
31309;DHT22;17936;52.446;10.840;2023-02-16T10:48:01;8.90;99.90
31309;DHT22;17936;52.446;10.840;2023-02-16T10:50:31;9.00;99.90
31309;DHT22;17936;52.446;10.840;2023-02-16T10:53:00;9.20;99.90
31309;DHT22;17936;52.446;10.840;2023-02-16T10:55:26;9.40;99.90
31309;DHT22;17936;52.446;10.840;2023-02-16T10:57:57;9.30;99.90
31309;DHT22;17936;52.446;10.840;2023-02-16T11:01:30;9.20;99.90
31309;DHT22;17936;52.446;10.840;2023-02-16T11:03:28;9.20;99.90
31309;DHT22;17936;52.446;10.840;2023-02-16T11:05:54;9.30;99.90
31309;DHT22;17936;52.446;10.840;2023-02-16T11:08:20;9.50;99.90
31309;DHT22;17936;52.446;10.840;2023-02-16T11:10:53;9.40;99.90
31309;DHT22;17936;52.446;10.840;2023-02-16T11:15:50;9.30;99.90
31309;DHT22;17936;52.446;10.840;2023-02-16T11:18:35;9.20;99.90
31309;DHT22;17936;52.446;10.840;2023-02-16T11:21:04;9.10;99.90
31309;DHT22;17936;52.446;10.840;2023-02-16T11:23:34;9.00;99.90
31309;DHT22;17936;52.446;10.840;2023-02-16T11:26:04;8.80;99.90
31309;DHT22;17936;52.446;10.840;2023-02-16T11:28:39;8.80;99.90
31309;DHT22;17936;52.446;10.840;2023-02-16T11:31:17;8.80;99.90
31309;DHT22;17936;52.446;10.840;2023-02-16T11:36:36;8.90;99.90
31309;DHT22;17936;52.446;10.840;2023-02-16T11:39:04;8.90;99.90
31309;DHT22;17936;52.446;10.840;2023-02-16T11:41:33;9.00;99.90
31309;DHT22;17936;52.446;10.840;2023-02-16T11:44:00;9.10;99.90
31309;DHT22;17936;52.446;10.840;2023-02-16T11:46:28;9.10;99.90
31309;DHT22;17936;52.446;10.840;2023-02-16T11:49:21;9.00;99.90
31309;DHT22;17936;52.446;10.840;2023-02-16T11:51:46;8.80;99.90
31309;DHT22;17936;52.446;10.840;2023-02-16T11:54:16;8.60;99.90
31309;DHT22;17936;52.446;10.840;2023-02-16T11:56:41;8.90;99.90
31309;DHT22;17936;52.446;10.840;2023-02-16T11:59:20;8.50;99.90
31309;DHT22;17936;52.446;10.840;2023-02-16T12:12:49;8.60;99.90
31309;DHT22;17936;52.446;10.840;2023-02-16T12:20:58;8.70;99.90
31309;DHT22;17936;52.446;10.840;2023-02-16T12:23:51;8.70;99.90
31309;DHT22;17936;52.446;10.840;2023-02-16T12:26:36;8.60;99.90
31309;DHT22;17936;52.446;10.840;2023-02-16T12:29:31;8.60;99.90
31309;DHT22;17936;52.446;10.840;2023-02-16T12:35:01;8.80;99.90
31309;DHT22;17936;52.446;10.840;2023-02-16T12:37:50;8.60;99.90
31309;DHT22;17936;52.446;10.840;2023-02-16T12:45:55;8.80;99.90
31309;DHT22;17936;52.446;10.840;2023-02-16T12:50:51;9.00;99.90
31309;DHT22;17936;52.446;10.840;2023-02-16T12:53:23;8.90;99.90
31309;DHT22;17936;52.446;10.840;2023-02-16T12:56:05;9.20;99.90
31309;DHT22;17936;52.446;10.840;2023-02-16T12:58:43;9.20;99.90
31309;DHT22;17936;52.446;10.840;2023-02-16T13:01:13;9.10;99.90
31309;DHT22;17936;52.446;10.840;2023-02-16T13:03:57;9.00;99.90
31309;DHT22;17936;52.446;10.840;2023-02-16T13:06:32;9.00;99.90
31309;DHT22;17936;52.446;10.840;2023-02-16T13:12:23;8.90;99.90
31309;DHT22;17936;52.446;10.840;2023-02-16T13:14:40;8.90;99.90
31309;DHT22;17936;52.446;10.840;2023-02-16T13:17:17;9.00;99.90
31309;DHT22;17936;52.446;10.840;2023-02-16T13:19:45;8.90;99.90
31309;DHT22;17936;52.446;10.840;2023-02-16T13:22:28;8.70;99.90
31309;DHT22;17936;52.446;10.840;2023-02-16T13:30:22;8.70;99.90
31309;DHT22;17936;52.446;10.840;2023-02-16T13:44:19;8.80;99.90
31309;DHT22;17936;52.446;10.840;2023-02-16T13:46:49;8.90;99.90
31309;DHT22;17936;52.446;10.840;2023-02-16T13:49:35;9.00;99.90
31309;DHT22;17936;52.446;10.840;2023-02-16T13:52:09;9.10;99.90
31309;DHT22;17936;52.446;10.840;2023-02-16T13:54:39;9.10;99.90
31309;DHT22;17936;52.446;10.840;2023-02-16T14:00:45;9.30;99.90
31309;DHT22;17936;52.446;10.840;2023-02-16T14:05:53;9.60;99.90
31309;DHT22;17936;52.446;10.840;2023-02-16T14:08:30;9.50;99.90
31309;DHT22;17936;52.446;10.840;2023-02-16T14:11:04;9.40;99.90
31309;DHT22;17936;52.446;10.840;2023-02-16T14:18:53;9.60;99.90
31309;DHT22;17936;52.446;10.840;2023-02-16T14:21:30;9.60;99.90
31309;DHT22;17936;52.446;10.840;2023-02-16T14:23:58;9.60;99.90
31309;DHT22;17936;52.446;10.840;2023-02-16T14:26:24;9.60;99.90
31309;DHT22;17936;52.446;10.840;2023-02-16T14:29:16;9.40;99.90
31309;DHT22;17936;52.446;10.840;2023-02-16T14:31:46;9.40;99.90
31309;DHT22;17936;52.446;10.840;2023-02-16T14:34:26;9.30;99.90
31309;DHT22;17936;52.446;10.840;2023-02-16T14:39:44;9.20;99.90
31309;DHT22;17936;52.446;10.840;2023-02-16T14:42:17;9.10;99.90
31309;DHT22;17936;52.446;10.840;2023-02-16T14:56:33;8.90;99.90
31309;DHT22;17936;52.446;10.840;2023-02-16T14:59:10;9.00;99.90
31309;DHT22;17936;52.446;10.840;2023-02-16T15:01:41;9.10;99.90
31309;DHT22;17936;52.446;10.840;2023-02-16T15:04:08;9.20;99.90
31309;DHT22;17936;52.446;10.840;2023-02-16T15:09:23;9.20;99.90
31309;DHT22;17936;52.446;10.840;2023-02-16T15:11:51;9.00;99.90
31309;DHT22;17936;52.446;10.840;2023-02-16T15:14:41;9.00;99.90
31309;DHT22;17936;52.446;10.840;2023-02-16T15:17:12;9.00;99.90
31309;DHT22;17936;52.446;10.840;2023-02-16T15:19:41;9.00;99.90
31309;DHT22;17936;52.446;10.840;2023-02-16T15:22:16;9.00;99.90
31309;DHT22;17936;52.446;10.840;2023-02-16T15:24:42;9.00;99.90
31309;DHT22;17936;52.446;10.840;2023-02-16T15:27:19;8.90;99.90
31309;DHT22;17936;52.446;10.840;2023-02-16T15:29:45;9.00;99.90
31309;DHT22;17936;52.446;10.840;2023-02-16T15:32:14;8.90;99.90
31309;DHT22;17936;52.446;10.840;2023-02-16T15:34:40;8.90;99.90
31309;DHT22;17936;52.446;10.840;2023-02-16T15:37:28;8.80;99.90
31309;DHT22;17936;52.446;10.840;2023-02-16T15:39:54;8.90;99.90
31309;DHT22;17936;52.446;10.840;2023-02-16T15:42:23;8.80;99.90
31309;DHT22;17936;52.446;10.840;2023-02-16T15:44:50;8.80;99.90
31309;DHT22;17936;52.446;10.840;2023-02-16T15:47:24;8.80;99.90
31309;DHT22;17936;52.446;10.840;2023-02-16T15:49:51;8.90;99.90
31309;DHT22;17936;52.446;10.840;2023-02-16T15:52:22;8.80;99.90
31309;DHT22;17936;52.446;10.840;2023-02-16T15:54:50;8.70;99.90
31309;DHT22;17936;52.446;10.840;2023-02-16T15:57:28;8.70;99.90
31309;DHT22;17936;52.446;10.840;2023-02-16T16:02:43;8.70;99.90
31309;DHT22;17936;52.446;10.840;2023-02-16T16:07:49;8.70;99.90
31309;DHT22;17936;52.446;10.840;2023-02-16T16:10:19;8.70;99.90
31309;DHT22;17936;52.446;10.840;2023-02-16T16:12:47;8.80;99.90
31309;DHT22;17936;52.446;10.840;2023-02-16T16:15:22;8.80;99.90
31309;DHT22;17936;52.446;10.840;2023-02-16T16:17:50;8.80;99.90
31309;DHT22;17936;52.446;10.840;2023-02-16T16:22:44;8.80;99.90
31309;DHT22;17936;52.446;10.840;2023-02-16T16:25:35;8.70;99.90
31309;DHT22;17936;52.446;10.840;2023-02-16T16:28:06;8.70;99.90
31309;DHT22;17936;52.446;10.840;2023-02-16T16:30:34;8.60;99.90
31309;DHT22;17936;52.446;10.840;2023-02-16T16:33:05;8.70;99.90
31309;DHT22;17936;52.446;10.840;2023-02-16T16:35:36;8.70;99.90
31309;DHT22;17936;52.446;10.840;2023-02-16T16:38:03;8.70;99.90
31309;DHT22;17936;52.446;10.840;2023-02-16T16:40:36;8.70;99.90
31309;DHT22;17936;52.446;10.840;2023-02-16T16:43:04;8.80;99.90
31309;DHT22;17936;52.446;10.840;2023-02-16T16:45:47;8.70;99.90
31309;DHT22;17936;52.446;10.840;2023-02-16T16:48:17;8.70;99.90
31309;DHT22;17936;52.446;10.840;2023-02-16T16:50:46;8.70;99.90
31309;DHT22;17936;52.446;10.840;2023-02-16T16:53:38;8.50;99.90
31309;DHT22;17936;52.446;10.840;2023-02-16T16:56:09;8.50;99.90
31309;DHT22;17936;52.446;10.840;2023-02-16T16:58:36;8.60;99.90
31309;DHT22;17936;52.446;10.840;2023-02-16T17:01:02;8.50;99.90
31309;DHT22;17936;52.446;10.840;2023-02-16T17:03:28;8.50;99.90
31309;DHT22;17936;52.446;10.840;2023-02-16T17:05:53;8.50;99.90
31309;DHT22;17936;52.446;10.840;2023-02-16T17:08:19;8.60;99.90
31309;DHT22;17936;52.446;10.840;2023-02-16T17:10:44;8.60;99.90
31309;DHT22;17936;52.446;10.840;2023-02-16T17:13:16;8.50;99.90
31309;DHT22;17936;52.446;10.840;2023-02-16T17:15:51;8.50;99.90
31309;DHT22;17936;52.446;10.840;2023-02-16T17:18:20;8.60;99.90
31309;DHT22;17936;52.446;10.840;2023-02-16T17:20:47;8.50;99.90
31309;DHT22;17936;52.446;10.840;2023-02-16T17:23:15;8.50;99.90
31309;DHT22;17936;52.446;10.840;2023-02-16T17:25:41;8.50;99.90
31309;DHT22;17936;52.446;10.840;2023-02-16T17:28:08;8.50;99.90
31309;DHT22;17936;52.446;10.840;2023-02-16T17:30:34;8.50;99.90
31309;DHT22;17936;52.446;10.840;2023-02-16T17:33:00;8.50;99.90
31309;DHT22;17936;52.446;10.840;2023-02-16T17:35:26;8.50;99.90
31309;DHT22;17936;52.446;10.840;2023-02-16T17:37:52;8.50;99.90
31309;DHT22;17936;52.446;10.840;2023-02-16T17:40:20;8.50;99.90
31309;DHT22;17936;52.446;10.840;2023-02-16T17:42:47;8.50;99.90
31309;DHT22;17936;52.446;10.840;2023-02-16T17:45:19;8.50;99.90
31309;DHT22;17936;52.446;10.840;2023-02-16T17:47:47;8.50;99.90
31309;DHT22;17936;52.446;10.840;2023-02-16T17:50:14;8.50;99.90
31309;DHT22;17936;52.446;10.840;2023-02-16T17:52:42;8.50;99.90
31309;DHT22;17936;52.446;10.840;2023-02-16T17:55:08;8.50;99.90
31309;DHT22;17936;52.446;10.840;2023-02-16T17:57:34;8.50;99.90
31309;DHT22;17936;52.446;10.840;2023-02-16T18:00:00;8.50;99.90
31309;DHT22;17936;52.446;10.840;2023-02-16T18:02:25;8.40;99.90